createdAt,value
2018-12-15T00:00:02.021Z,7.13
2018-12-15T00:02:29.628Z,7.83
2018-12-15T00:04:57.635Z,7.23
2018-12-15T00:07:25.239Z,8.87
2018-12-15T00:09:53.728Z,6.80
2018-12-15T00:12:21.410Z,5.83
2018-12-15T00:14:49.160Z,7.40
2018-12-15T00:17:16.807Z,8.10
2018-12-15T00:19:45.276Z,8.37
2018-12-15T00:22:13.567Z,6.63
2018-12-15T00:24:41.454Z,7.43
2018-12-15T00:27:09.076Z,7.50
2018-12-15T00:29:36.838Z,8.60
2018-12-15T00:32:04.665Z,7.57
2018-12-15T00:34:32.254Z,7.47
2018-12-15T00:37:00.089Z,6.23
2018-12-15T00:39:27.953Z,6.10
2018-12-15T00:41:55.833Z,8.20
2018-12-15T00:44:23.488Z,5.67
2018-12-15T00:46:51.207Z,5.57
2018-12-15T00:49:18.861Z,6.17
2018-12-15T00:51:46.479Z,6.30
2018-12-15T00:54:14.124Z,6.03
2018-12-15T00:56:41.823Z,5.50
2018-12-15T00:59:09.390Z,5.93
2018-12-15T01:01:37.199Z,5.20
2018-12-15T01:04:04.802Z,7.50
2018-12-15T01:06:32.505Z,8.03
2018-12-15T01:09:00.648Z,7.90
2018-12-15T01:11:28.405Z,7.47
2018-12-15T01:13:56.316Z,6.73
2018-12-15T01:16:23.961Z,6.60
2018-12-15T01:18:51.772Z,7.03
2018-12-15T01:21:19.533Z,6.80
2018-12-15T01:23:47.111Z,5.40
2018-12-15T01:26:14.756Z,5.13
2018-12-15T01:28:42.357Z,6.33
2018-12-15T01:31:09.988Z,5.37
2018-12-15T01:33:37.633Z,4.93
2018-12-15T01:36:05.211Z,5.30
2018-12-15T01:38:32.997Z,5.10
2018-12-15T01:41:00.622Z,5.20
2018-12-15T01:43:28.261Z,4.80
2018-12-15T01:45:55.903Z,6.00
2018-12-15T01:48:23.785Z,5.97
2018-12-15T01:50:51.452Z,5.83
2018-12-15T01:53:19.022Z,4.83
2018-12-15T01:55:46.655Z,5.97
2018-12-15T01:58:14.291Z,6.23
2018-12-15T02:00:41.934Z,6.13
2018-12-15T02:03:09.731Z,4.90
2018-12-15T02:05:37.350Z,6.00
2018-12-15T02:08:04.980Z,5.57
2018-12-15T02:10:32.564Z,6.20
2018-12-15T02:13:00.218Z,4.73
2018-12-15T02:15:27.852Z,6.80
2018-12-15T02:17:55.679Z,5.47
2018-12-15T02:20:23.447Z,6.20
2018-12-15T02:22:51.311Z,4.87
2018-12-15T02:25:18.918Z,5.83
2018-12-15T02:27:46.545Z,5.33
2018-12-15T02:30:14.156Z,5.00
2018-12-15T02:32:41.789Z,6.33
2018-12-15T02:35:09.426Z,6.60
2018-12-15T02:37:37.107Z,6.13
2018-12-15T02:40:05.762Z,4.97
2018-12-15T02:42:33.475Z,6.23
2018-12-15T02:45:01.059Z,5.87
2018-12-15T02:47:28.628Z,5.43
2018-12-15T02:49:56.927Z,4.93
2018-12-15T02:52:24.513Z,5.77
2018-12-15T02:54:52.155Z,5.90
2018-12-15T02:57:19.842Z,5.30
2018-12-15T02:59:47.433Z,5.20
2018-12-15T03:02:15.240Z,5.67
2018-12-15T03:04:43.018Z,6.60
2018-12-15T03:07:10.632Z,6.17
2018-12-15T03:09:38.427Z,5.90
2018-12-15T03:12:06.225Z,5.77
2018-12-15T03:14:33.872Z,5.77
2018-12-15T03:17:04.173Z,5.50
2018-12-15T03:19:32.667Z,5.90
2018-12-15T03:22:00.534Z,5.50
2018-12-15T03:24:28.221Z,6.17
2018-12-15T03:26:55.869Z,5.53
2018-12-15T03:29:23.592Z,5.17
2018-12-15T03:31:51.241Z,5.13
2018-12-15T03:34:18.905Z,5.23
2018-12-15T03:36:46.545Z,5.50
2018-12-15T03:39:14.326Z,6.13
2018-12-15T03:41:41.966Z,5.40
2018-12-15T03:44:09.566Z,5.87
2018-12-15T03:46:37.198Z,5.77
2018-12-15T03:49:04.832Z,5.70
2018-12-15T03:51:32.553Z,5.33
2018-12-15T03:54:00.187Z,5.53
2018-12-15T03:56:27.773Z,6.03
2018-12-15T03:58:55.410Z,6.73
2018-12-15T04:01:22.994Z,6.10
2018-12-15T04:03:50.597Z,6.27
2018-12-15T04:06:18.225Z,6.70
2018-12-15T04:08:45.856Z,5.77
2018-12-15T04:11:13.427Z,6.00
2018-12-15T04:13:41.082Z,5.67
2018-12-15T04:16:08.720Z,6.77
2018-12-15T04:18:36.313Z,6.20
2018-12-15T04:21:04.016Z,5.03
2018-12-15T04:23:31.599Z,6.37
2018-12-15T04:25:59.235Z,6.97
2018-12-15T04:28:26.851Z,6.93
2018-12-15T04:30:54.482Z,8.67
2018-12-15T04:33:22.137Z,8.20
2018-12-15T04:35:49.705Z,6.80
2018-12-15T04:38:17.345Z,7.17
2018-12-15T04:40:44.968Z,8.40
2018-12-15T04:43:12.643Z,6.73
2018-12-15T04:45:40.313Z,8.47
2018-12-15T04:48:11.339Z,8.97
2018-12-15T04:50:37.557Z,8.23
2018-12-15T04:53:05.294Z,6.20
2018-12-15T04:55:32.868Z,7.20
2018-12-15T04:58:00.521Z,7.33
2018-12-15T05:00:28.133Z,5.83
2018-12-15T05:02:55.715Z,7.00
2018-12-15T05:05:23.368Z,6.40
2018-12-15T05:07:50.946Z,5.60
2018-12-15T05:10:18.550Z,6.07
2018-12-15T05:12:46.217Z,8.00
2018-12-15T05:15:13.809Z,7.73
2018-12-15T05:17:41.688Z,6.60
2018-12-15T05:20:09.338Z,7.73
2018-12-15T05:22:37.143Z,7.60
2018-12-15T05:25:05.427Z,7.17
2018-12-15T05:27:33.012Z,7.87
2018-12-15T05:30:00.582Z,8.20
2018-12-15T05:32:28.196Z,6.07
2018-12-15T05:34:55.814Z,7.13
2018-12-15T05:37:23.455Z,6.50
2018-12-15T05:39:51.077Z,6.93
2018-12-15T05:42:18.707Z,7.30
2018-12-15T05:44:46.291Z,7.40
2018-12-15T05:47:13.937Z,6.90
2018-12-15T05:49:41.523Z,6.37
2018-12-15T05:52:09.262Z,6.83
2018-12-15T05:54:36.902Z,6.20
2018-12-15T05:57:04.515Z,5.63
2018-12-15T05:59:32.284Z,6.50
2018-12-15T06:02:01.557Z,5.63
2018-12-15T06:04:29.205Z,7.33
2018-12-15T06:06:56.781Z,6.73
2018-12-15T06:09:24.460Z,6.40
2018-12-15T06:11:52.090Z,6.80
2018-12-15T06:14:19.763Z,7.57
2018-12-15T06:16:47.333Z,6.60
2018-12-15T06:19:14.959Z,7.53
2018-12-15T06:21:42.548Z,7.10
2018-12-15T06:24:10.245Z,6.90
2018-12-15T06:26:37.905Z,6.20
2018-12-15T06:29:05.548Z,5.00
2018-12-15T06:31:33.126Z,10.37
2018-12-15T06:34:00.754Z,9.37
2018-12-15T06:36:28.425Z,7.80
2018-12-15T06:38:56.055Z,6.40
2018-12-15T06:41:23.693Z,5.03
2018-12-15T06:43:51.311Z,6.97
2018-12-15T06:46:18.982Z,6.27
2018-12-15T06:48:46.612Z,6.20
2018-12-15T06:51:14.389Z,5.53
2018-12-15T06:53:41.954Z,5.23
2018-12-15T06:56:09.609Z,5.53
2018-12-15T06:58:37.256Z,7.23
2018-12-15T07:01:04.888Z,8.83
2018-12-15T07:03:32.531Z,8.70
2018-12-15T07:06:00.804Z,8.70
2018-12-15T07:08:28.533Z,9.07
2018-12-15T07:10:56.506Z,8.97
2018-12-15T07:13:24.213Z,8.13
2018-12-15T07:15:52.072Z,8.60
2018-12-15T07:18:19.798Z,9.27
2018-12-15T07:20:47.568Z,9.13
2018-12-15T07:23:15.330Z,10.50
2018-12-15T07:25:43.252Z,8.97
2018-12-15T07:28:10.912Z,9.90
2018-12-15T07:30:38.698Z,7.70
2018-12-15T07:33:06.506Z,8.23
2018-12-15T07:35:34.151Z,8.57
2018-12-15T07:38:01.917Z,7.57
2018-12-15T07:40:30.932Z,8.13
2018-12-15T07:42:59.139Z,8.87
2018-12-15T07:45:26.922Z,8.27
2018-12-15T07:47:54.618Z,7.50
2018-12-15T07:50:22.356Z,8.80
2018-12-15T07:52:50.154Z,9.50
2018-12-15T07:55:18.136Z,11.50
2018-12-15T07:57:45.983Z,12.70
2018-12-15T08:00:13.670Z,13.20
2018-12-15T08:02:41.369Z,12.70
2018-12-15T08:05:09.037Z,13.33
2018-12-15T08:07:37.653Z,11.97
2018-12-15T08:10:06.591Z,11.60
2018-12-15T08:12:39.440Z,10.07
2018-12-15T08:15:07.670Z,10.03
2018-12-15T08:17:35.441Z,9.10
2018-12-15T08:20:04.255Z,12.43
2018-12-15T08:22:32.035Z,10.53
2018-12-15T08:24:59.718Z,11.30
2018-12-15T08:27:27.825Z,10.20
2018-12-15T08:29:56.045Z,10.57
2018-12-15T08:32:23.993Z,9.40
2018-12-15T08:34:51.654Z,9.80
2018-12-15T08:37:19.310Z,10.27
2018-12-15T08:39:47.064Z,11.33
2018-12-15T08:42:14.857Z,11.07
2018-12-15T08:44:42.535Z,12.00
2018-12-15T08:47:10.389Z,10.70
2018-12-15T08:49:39.467Z,11.93
2018-12-15T08:52:07.365Z,11.60
2018-12-15T08:54:35.076Z,10.43
2018-12-15T08:57:02.663Z,10.23
2018-12-15T08:59:30.339Z,9.13
2018-12-15T09:01:58.196Z,9.03
2018-12-15T09:04:25.841Z,10.90
2018-12-15T09:06:53.640Z,9.17
2018-12-15T09:09:21.510Z,8.50
2018-12-15T09:11:49.781Z,8.30
2018-12-15T09:14:17.437Z,8.60
2018-12-15T09:16:45.421Z,8.40
2018-12-15T09:19:14.267Z,8.47
2018-12-15T09:21:42.176Z,8.60
2018-12-15T09:24:09.855Z,9.60
2018-12-15T09:26:37.510Z,9.20
2018-12-15T09:29:05.138Z,8.60
2018-12-15T09:31:33.410Z,9.60
2018-12-15T09:34:01.070Z,8.87
2018-12-15T09:36:28.751Z,8.20
2018-12-15T09:38:56.330Z,8.33
2018-12-15T09:41:24.164Z,8.30
2018-12-15T09:43:51.908Z,8.90
2018-12-15T09:46:19.788Z,8.50
2018-12-15T09:48:47.448Z,9.13
2018-12-15T09:51:16.256Z,8.30
2018-12-15T09:53:44.923Z,8.93
2018-12-15T09:56:13.570Z,8.70
2018-12-15T09:58:41.550Z,8.97
2018-12-15T10:01:09.345Z,9.20
2018-12-15T10:03:37.100Z,9.20
2018-12-15T10:06:04.799Z,8.13
2018-12-15T10:08:32.612Z,8.00
2018-12-15T10:11:00.298Z,10.20
2018-12-15T10:13:28.222Z,9.40
2018-12-15T10:15:55.960Z,9.60
2018-12-15T10:18:24.030Z,10.20
2018-12-15T10:20:51.785Z,8.87
2018-12-15T10:23:19.456Z,8.97
2018-12-15T10:25:47.198Z,7.93
2018-12-15T10:28:14.951Z,7.87
2018-12-15T10:30:48.132Z,8.47
2018-12-15T10:33:15.912Z,8.40
2018-12-15T10:35:43.530Z,8.43
2018-12-15T10:38:11.201Z,8.80
2018-12-15T10:40:38.783Z,8.00
2018-12-15T10:43:06.582Z,8.90
2018-12-15T10:45:34.178Z,7.90
2018-12-15T10:48:03.048Z,9.10
2018-12-15T10:50:30.812Z,7.67
2018-12-15T10:52:58.678Z,8.00
2018-12-15T10:55:27.554Z,9.40
2018-12-15T10:57:55.238Z,8.57
2018-12-15T11:00:26.680Z,8.10
2018-12-15T11:02:54.495Z,7.80
2018-12-15T11:05:22.226Z,8.30
2018-12-15T11:07:49.908Z,8.17
2018-12-15T11:10:17.848Z,7.40
2018-12-15T11:12:45.508Z,7.20
2018-12-15T11:15:13.331Z,7.80
2018-12-15T11:17:40.909Z,8.13
2018-12-15T11:20:08.702Z,8.20
2018-12-15T11:22:38.309Z,8.60
2018-12-15T11:25:06.080Z,7.37
2018-12-15T11:27:33.939Z,7.93
2018-12-15T11:30:01.820Z,7.80
2018-12-15T11:32:29.572Z,8.10
2018-12-15T11:34:57.230Z,7.90
2018-12-15T11:37:24.877Z,8.80
2018-12-15T11:39:52.454Z,7.80
2018-12-15T11:42:20.106Z,8.20
2018-12-15T11:44:47.736Z,9.83
2018-12-15T11:47:15.541Z,9.83
2018-12-15T11:49:43.713Z,10.90
2018-12-15T11:52:11.795Z,9.90
2018-12-15T11:54:39.414Z,9.33
2018-12-15T11:57:07.031Z,9.20
2018-12-15T11:59:34.679Z,8.57
2018-12-15T12:02:02.346Z,9.83
2018-12-15T12:04:29.953Z,9.60
2018-12-15T12:06:57.593Z,9.60
2018-12-15T12:09:25.431Z,11.43
2018-12-15T12:11:53.282Z,8.40
2018-12-15T12:14:20.912Z,8.93
2018-12-15T12:16:48.534Z,8.23
2018-12-15T12:19:16.192Z,8.50
2018-12-15T12:21:44.046Z,7.03
2018-12-15T12:24:11.669Z,8.33
2018-12-15T12:26:39.308Z,8.00
2018-12-15T12:29:06.932Z,7.63
2018-12-15T12:31:34.800Z,7.60
2018-12-15T12:34:02.430Z,8.20
2018-12-15T12:36:30.059Z,8.60
2018-12-15T12:38:57.732Z,7.07
2018-12-15T12:41:26.362Z,7.40
2018-12-15T12:43:54.083Z,6.60
2018-12-15T12:46:21.767Z,7.67
2018-12-15T12:48:49.443Z,8.90
2018-12-15T12:51:17.034Z,6.50
2018-12-15T12:53:45.871Z,7.60
2018-12-15T12:56:13.698Z,7.90
2018-12-15T12:58:41.440Z,6.80
2018-12-15T13:01:09.413Z,7.53
2018-12-15T13:03:37.220Z,6.87
2018-12-15T13:06:04.914Z,6.77
2018-12-15T13:08:32.564Z,9.00
2018-12-15T13:11:00.182Z,8.10
2018-12-15T13:13:28.836Z,7.00
2018-12-15T13:15:56.516Z,7.20
2018-12-15T13:18:24.279Z,9.37
2018-12-15T13:20:52.088Z,9.80
2018-12-15T13:23:20.008Z,9.07
2018-12-15T13:25:47.634Z,8.27
2018-12-15T13:28:15.267Z,8.23
2018-12-15T13:30:43.317Z,7.30
2018-12-15T13:33:22.847Z,8.27
2018-12-15T13:35:50.513Z,8.13
2018-12-15T13:38:18.177Z,7.97
2018-12-15T13:40:45.891Z,8.10
2018-12-15T13:43:13.704Z,7.73
2018-12-15T13:45:42.307Z,8.23
2018-12-15T13:48:09.963Z,8.13
2018-12-15T13:50:37.563Z,7.90
2018-12-15T13:53:05.261Z,7.73
2018-12-15T13:55:32.910Z,7.37
2018-12-15T13:58:00.696Z,7.53
2018-12-15T14:00:28.562Z,7.90
2018-12-15T14:02:56.329Z,8.30
2018-12-15T14:05:23.930Z,6.70
2018-12-15T14:07:52.332Z,7.17
2018-12-15T14:10:20.058Z,7.67
2018-12-15T14:12:47.795Z,8.23
2018-12-15T14:15:15.424Z,7.90
2018-12-15T14:17:43.212Z,8.40
2018-12-15T14:20:16.578Z,8.83
2018-12-15T14:22:40.805Z,8.80
2018-12-15T14:25:08.482Z,7.93
2018-12-15T14:27:36.156Z,8.80
2018-12-15T14:30:04.991Z,9.50
2018-12-15T14:32:32.643Z,8.10
2018-12-15T14:35:00.557Z,8.23
2018-12-15T14:37:29.967Z,7.83
2018-12-15T14:39:57.817Z,7.63
2018-12-15T14:42:25.791Z,7.47
2018-12-15T14:44:53.985Z,8.03
2018-12-15T14:47:21.905Z,7.17
2018-12-15T14:49:49.553Z,7.13
2018-12-15T14:52:17.222Z,7.87
2018-12-15T14:54:44.942Z,6.30
2018-12-15T14:57:12.692Z,7.47
2018-12-15T14:59:41.232Z,7.70
2018-12-15T15:02:09.334Z,7.03
2018-12-15T15:04:41.120Z,7.80
2018-12-15T15:07:11.173Z,7.13
2018-12-15T15:09:39.023Z,7.20
2018-12-15T15:12:06.715Z,7.03
2018-12-15T15:14:34.965Z,8.40
2018-12-15T15:17:06.442Z,9.10
2018-12-15T15:19:34.724Z,8.27
2018-12-15T15:22:02.731Z,9.23
2018-12-15T15:24:30.430Z,8.37
2018-12-15T15:26:59.235Z,8.87
2018-12-15T15:29:27.058Z,8.87
2018-12-15T15:31:54.890Z,7.80
2018-12-15T15:34:22.726Z,7.93
2018-12-15T15:36:50.492Z,8.70
2018-12-15T15:39:18.512Z,7.57
2018-12-15T15:41:48.093Z,8.60
2018-12-15T15:44:15.834Z,9.77
2018-12-15T15:46:43.580Z,8.90
2018-12-15T15:49:11.510Z,8.23
2018-12-15T15:51:39.128Z,6.90
2018-12-15T15:54:06.904Z,7.27
2018-12-15T15:56:34.611Z,7.43
2018-12-15T15:59:02.235Z,7.07
2018-12-15T16:01:29.941Z,7.30
2018-12-15T16:03:57.673Z,6.10
2018-12-15T16:06:25.259Z,7.37
2018-12-15T16:08:52.982Z,6.77
2018-12-15T16:11:21.659Z,7.20
2018-12-15T16:13:49.375Z,7.90
2018-12-15T16:16:28.829Z,8.97
2018-12-15T16:18:56.559Z,7.70
2018-12-15T16:21:24.295Z,8.13
2018-12-15T16:23:51.933Z,7.50
2018-12-15T16:26:19.707Z,8.50
2018-12-15T16:28:47.431Z,6.43
2018-12-15T16:31:15.382Z,8.20
2018-12-15T16:33:43.071Z,7.67
2018-12-15T16:36:10.822Z,8.30
2018-12-15T16:38:38.566Z,6.60
2018-12-15T16:41:06.393Z,7.37
2018-12-15T16:43:34.789Z,7.10
2018-12-15T16:46:02.416Z,6.57
2018-12-15T16:48:30.136Z,6.37
2018-12-15T16:50:58.127Z,8.23
2018-12-15T16:53:25.908Z,8.33
2018-12-15T16:55:53.635Z,7.57
2018-12-15T16:58:21.786Z,7.27
2018-12-15T17:00:49.773Z,7.10
2018-12-15T17:03:17.548Z,6.80
2018-12-15T17:05:45.375Z,7.77
2018-12-15T17:08:13.377Z,7.30
2018-12-15T17:10:41.081Z,7.70
2018-12-15T17:13:08.728Z,9.17
2018-12-15T17:15:36.546Z,8.13
2018-12-15T17:18:04.259Z,8.13
2018-12-15T17:20:32.057Z,9.03
2018-12-15T17:22:59.666Z,7.63
2018-12-15T17:25:28.123Z,7.77
2018-12-15T17:27:55.924Z,9.37
2018-12-15T17:30:23.791Z,7.67
2018-12-15T17:32:53.567Z,7.10
2018-12-15T17:35:22.442Z,7.70
2018-12-15T17:37:51.161Z,7.00
2018-12-15T17:40:18.859Z,6.07
2018-12-15T17:42:46.762Z,8.10
2018-12-15T17:45:15.159Z,7.53
2018-12-15T17:47:42.981Z,7.40
2018-12-15T17:50:10.943Z,7.07
2018-12-15T17:52:38.976Z,9.10
2018-12-15T17:55:07.063Z,7.93
2018-12-15T17:57:36.080Z,8.30
2018-12-15T18:00:06.614Z,9.50
2018-12-15T18:02:34.434Z,9.90
2018-12-15T18:05:02.678Z,9.60
2018-12-15T18:07:30.364Z,8.50
2018-12-15T18:09:58.682Z,6.20
2018-12-15T18:12:26.447Z,6.30
2018-12-15T18:14:54.200Z,8.07
2018-12-15T18:17:21.956Z,7.80
2018-12-15T18:19:49.768Z,7.03
2018-12-15T18:22:17.412Z,6.63
2018-12-15T18:24:45.114Z,7.23
2018-12-15T18:27:12.802Z,6.17
2018-12-15T18:29:40.445Z,6.80
2018-12-15T18:32:08.675Z,6.33
2018-12-15T18:34:36.285Z,7.50
2018-12-15T18:37:04.065Z,6.77
2018-12-15T18:39:32.064Z,6.83
2018-12-15T18:41:59.830Z,6.07
2018-12-15T18:44:28.694Z,6.53
2018-12-15T18:46:56.795Z,6.63
2018-12-15T18:49:24.591Z,6.30
2018-12-15T18:51:53.561Z,6.87
2018-12-15T18:54:24.297Z,7.03
2018-12-15T18:56:53.165Z,7.67
2018-12-15T18:59:21.966Z,6.27
2018-12-15T19:01:50.838Z,7.97
2018-12-15T19:04:18.723Z,6.40
2018-12-15T19:06:47.260Z,6.47
2018-12-15T19:09:15.411Z,7.03
2018-12-15T19:11:46.806Z,6.83
2018-12-15T19:14:15.164Z,7.33
2018-12-15T19:16:42.907Z,6.20
2018-12-15T19:19:10.567Z,6.50
2018-12-15T19:21:38.249Z,7.17
2018-12-15T19:24:06.941Z,6.53
2018-12-15T19:26:34.639Z,6.47
2018-12-15T19:29:02.348Z,7.90
2018-12-15T19:31:29.953Z,7.17
2018-12-15T19:33:57.705Z,7.33
2018-12-15T19:36:25.598Z,6.37
2018-12-15T19:38:54.706Z,4.73
2018-12-15T19:41:22.539Z,6.60
2018-12-15T19:43:51.207Z,5.33
2018-12-15T19:46:18.861Z,4.80
2018-12-15T19:48:46.594Z,6.50
2018-12-15T19:51:14.391Z,6.50
2018-12-15T19:53:42.179Z,7.67
2018-12-15T19:56:09.905Z,8.60
2018-12-15T19:58:37.616Z,6.70
2018-12-15T20:01:05.220Z,6.13
2018-12-15T20:03:33.032Z,7.17
2018-12-15T20:06:00.754Z,7.70
2018-12-15T20:08:28.348Z,6.17
2018-12-15T20:10:56.173Z,5.60
2018-12-15T20:13:24.660Z,6.20
2018-12-15T20:15:52.350Z,6.27
2018-12-15T20:18:21.270Z,5.50
2018-12-15T20:20:49.177Z,5.93
2018-12-15T20:23:16.814Z,4.40
2018-12-15T20:25:44.512Z,5.40
2018-12-15T20:28:12.791Z,5.03
2018-12-15T20:30:40.701Z,6.40
2018-12-15T20:33:08.382Z,6.17
2018-12-15T20:35:36.196Z,6.23
2018-12-15T20:38:03.841Z,6.27
2018-12-15T20:40:32.725Z,7.27
2018-12-15T20:43:00.389Z,7.27
2018-12-15T20:45:28.079Z,6.67
2018-12-15T20:47:55.748Z,6.17
2018-12-15T20:50:23.428Z,7.63
2018-12-15T20:52:51.262Z,7.80
2018-12-15T20:55:19.028Z,6.53
2018-12-15T20:57:46.728Z,7.63
2018-12-15T21:00:14.394Z,6.27
2018-12-15T21:02:44.080Z,6.30
2018-12-15T21:05:11.683Z,6.73
2018-12-15T21:07:39.400Z,5.43
2018-12-15T21:10:07.528Z,6.90
2018-12-15T21:12:35.141Z,6.03
2018-12-15T21:15:07.720Z,6.10
2018-12-15T21:17:35.909Z,5.10
2018-12-15T21:20:05.391Z,3.60
2018-12-15T21:22:33.073Z,4.43
2018-12-15T21:25:00.703Z,5.97
2018-12-15T21:27:28.508Z,4.63
2018-12-15T21:29:56.119Z,5.87
2018-12-15T21:32:24.605Z,5.90
2018-12-15T21:34:52.325Z,6.07
2018-12-15T21:37:20.047Z,5.67
2018-12-15T21:39:47.753Z,5.77
2018-12-15T21:42:15.385Z,4.63
2018-12-15T21:44:43.174Z,5.50
2018-12-15T21:47:10.880Z,5.40
2018-12-15T21:49:38.560Z,5.60
2018-12-15T21:52:06.336Z,4.53
2018-12-15T21:54:33.976Z,4.83
2018-12-15T21:57:01.715Z,5.40
2018-12-15T21:59:29.343Z,5.53
2018-12-15T22:01:57.231Z,4.47
2018-12-15T22:04:25.213Z,5.07
2018-12-15T22:06:52.944Z,6.73
2018-12-15T22:09:20.579Z,5.80
2018-12-15T22:11:48.223Z,4.37
2018-12-15T22:14:15.903Z,5.70
2018-12-15T22:16:44.028Z,5.83
2018-12-15T22:19:11.701Z,7.03
2018-12-15T22:21:39.360Z,4.00
2018-12-15T22:24:07.225Z,4.80
2018-12-15T22:26:34.819Z,7.40
2018-12-15T22:29:02.427Z,6.77
2018-12-15T22:31:30.162Z,6.50
2018-12-15T22:33:57.807Z,6.80
2018-12-15T22:36:25.514Z,6.67
2018-12-15T22:38:54.401Z,6.90
2018-12-15T22:41:22.270Z,6.37
2018-12-15T22:43:49.943Z,6.70
2018-12-15T22:46:17.760Z,6.20
2018-12-15T22:48:45.363Z,6.67
2018-12-15T22:51:13.029Z,5.30
2018-12-15T22:53:40.650Z,5.50
2018-12-15T22:56:08.455Z,5.60
2018-12-15T22:58:36.233Z,5.17
2018-12-15T23:01:06.526Z,4.70
2018-12-15T23:03:34.207Z,5.43
2018-12-15T23:06:01.843Z,4.17
2018-12-15T23:08:29.509Z,4.67
2018-12-15T23:10:57.215Z,4.20
2018-12-15T23:13:24.829Z,4.97
2018-12-15T23:15:52.540Z,4.80
2018-12-15T23:18:21.367Z,3.67
2018-12-15T23:20:48.993Z,4.30
2018-12-15T23:23:16.829Z,5.13
2018-12-15T23:25:44.540Z,4.00
2018-12-15T23:28:12.415Z,5.10
2018-12-15T23:30:40.117Z,5.20
2018-12-15T23:33:07.858Z,4.00
2018-12-15T23:35:35.537Z,4.63
2018-12-15T23:38:03.191Z,5.00
2018-12-15T23:40:30.817Z,4.87
2018-12-15T23:42:58.508Z,3.90
2018-12-15T23:45:26.083Z,3.60
2018-12-15T23:47:53.819Z,5.07
2018-12-15T23:50:21.448Z,4.33
2018-12-15T23:52:49.160Z,4.47
2018-12-15T23:55:17.061Z,4.13
2018-12-15T23:57:44.779Z,5.10
